sensor_id;sensor_type;location;lat;lon;timestamp;P1;durP1;ratioP1;P2;durP2;ratioP2
78372;SDS011;67656;52.074;4.758;2023-08-06T00:00:49;13.32;;;6.70;;
78372;SDS011;67656;52.074;4.758;2023-08-06T00:05:49;12.80;;;5.75;;
78372;SDS011;67656;52.074;4.758;2023-08-06T00:10:50;11.80;;;6.03;;
78372;SDS011;67656;52.074;4.758;2023-08-06T00:15:50;13.95;;;6.03;;
78372;SDS011;67656;52.074;4.758;2023-08-06T00:20:52;12.63;;;5.60;;
78372;SDS011;67656;52.074;4.758;2023-08-06T00:25:52;15.25;;;6.05;;
78372;SDS011;67656;52.074;4.758;2023-08-06T00:30:53;11.63;;;5.95;;
78372;SDS011;67656;52.074;4.758;2023-08-06T00:35:54;12.77;;;6.20;;
78372;SDS011;67656;52.074;4.758;2023-08-06T00:40:54;13.52;;;6.10;;
78372;SDS011;67656;52.074;4.758;2023-08-06T00:45:54;12.07;;;5.60;;
78372;SDS011;67656;52.074;4.758;2023-08-06T00:50:55;14.57;;;6.00;;
78372;SDS011;67656;52.074;4.758;2023-08-06T00:55:56;12.50;;;6.45;;
78372;SDS011;67656;52.074;4.758;2023-08-06T01:00:57;15.27;;;6.32;;
78372;SDS011;67656;52.074;4.758;2023-08-06T01:05:58;17.05;;;7.03;;
78372;SDS011;67656;52.074;4.758;2023-08-06T01:16:21;13.50;;;6.18;;
78372;SDS011;67656;52.074;4.758;2023-08-06T01:21:24;12.43;;;6.63;;
78372;SDS011;67656;52.074;4.758;2023-08-06T01:26:27;12.02;;;6.40;;
78372;SDS011;67656;52.074;4.758;2023-08-06T01:31:39;16.05;;;6.57;;
78372;SDS011;67656;52.074;4.758;2023-08-06T01:36:43;12.25;;;6.03;;
78372;SDS011;67656;52.074;4.758;2023-08-06T01:41:44;13.57;;;6.35;;
78372;SDS011;67656;52.074;4.758;2023-08-06T01:46:44;10.98;;;5.97;;
78372;SDS011;67656;52.074;4.758;2023-08-06T01:51:44;14.13;;;6.35;;
78372;SDS011;67656;52.074;4.758;2023-08-06T01:56:45;14.27;;;6.70;;
78372;SDS011;67656;52.074;4.758;2023-08-06T02:01:45;13.95;;;6.53;;
78372;SDS011;67656;52.074;4.758;2023-08-06T02:06:46;15.75;;;7.10;;
78372;SDS011;67656;52.074;4.758;2023-08-06T02:11:46;17.33;;;7.38;;
78372;SDS011;67656;52.074;4.758;2023-08-06T02:16:47;19.15;;;6.85;;
78372;SDS011;67656;52.074;4.758;2023-08-06T02:21:47;19.63;;;7.57;;
78372;SDS011;67656;52.074;4.758;2023-08-06T02:26:47;22.58;;;7.90;;
78372;SDS011;67656;52.074;4.758;2023-08-06T02:31:48;18.30;;;7.63;;
78372;SDS011;67656;52.074;4.758;2023-08-06T02:36:48;22.15;;;8.48;;
78372;SDS011;67656;52.074;4.758;2023-08-06T02:41:48;24.88;;;9.32;;
78372;SDS011;67656;52.074;4.758;2023-08-06T02:46:49;23.77;;;8.85;;
78372;SDS011;67656;52.074;4.758;2023-08-06T02:51:49;23.95;;;9.45;;
78372;SDS011;67656;52.074;4.758;2023-08-06T02:56:49;20.60;;;8.63;;
78372;SDS011;67656;52.074;4.758;2023-08-06T03:01:57;21.92;;;9.05;;
78372;SDS011;67656;52.074;4.758;2023-08-06T03:07:05;24.13;;;9.48;;
78372;SDS011;67656;52.074;4.758;2023-08-06T03:12:14;25.50;;;9.27;;
78372;SDS011;67656;52.074;4.758;2023-08-06T03:17:15;23.77;;;9.07;;
78372;SDS011;67656;52.074;4.758;2023-08-06T03:22:16;24.13;;;9.27;;
78372;SDS011;67656;52.074;4.758;2023-08-06T03:27:16;25.27;;;9.13;;
78372;SDS011;67656;52.074;4.758;2023-08-06T03:32:17;25.80;;;10.20;;
78372;SDS011;67656;52.074;4.758;2023-08-06T03:37:18;26.77;;;9.23;;
78372;SDS011;67656;52.074;4.758;2023-08-06T03:42:18;29.00;;;10.85;;
78372;SDS011;67656;52.074;4.758;2023-08-06T03:47:19;26.92;;;9.98;;
78372;SDS011;67656;52.074;4.758;2023-08-06T03:52:22;29.95;;;10.48;;
78372;SDS011;67656;52.074;4.758;2023-08-06T03:57:23;30.40;;;10.52;;
78372;SDS011;67656;52.074;4.758;2023-08-06T04:02:23;29.10;;;11.20;;
78372;SDS011;67656;52.074;4.758;2023-08-06T04:07:24;13.35;;;5.35;;
78372;SDS011;67656;52.074;4.758;2023-08-06T04:12:25;6.30;;;3.30;;
78372;SDS011;67656;52.074;4.758;2023-08-06T04:17:26;5.90;;;2.97;;
78372;SDS011;67656;52.074;4.758;2023-08-06T04:22:26;7.88;;;3.05;;
78372;SDS011;67656;52.074;4.758;2023-08-06T04:27:26;7.82;;;3.40;;
78372;SDS011;67656;52.074;4.758;2023-08-06T04:32:27;7.90;;;4.07;;
78372;SDS011;67656;52.074;4.758;2023-08-06T04:37:28;9.20;;;4.38;;
78372;SDS011;67656;52.074;4.758;2023-08-06T04:42:29;12.27;;;5.45;;
78372;SDS011;67656;52.074;4.758;2023-08-06T04:47:29;9.27;;;4.45;;
78372;SDS011;67656;52.074;4.758;2023-08-06T04:52:30;8.90;;;3.88;;
78372;SDS011;67656;52.074;4.758;2023-08-06T04:57:30;8.25;;;4.28;;
78372;SDS011;67656;52.074;4.758;2023-08-06T05:02:30;8.55;;;3.55;;
78372;SDS011;67656;52.074;4.758;2023-08-06T05:07:31;6.38;;;3.38;;
78372;SDS011;67656;52.074;4.758;2023-08-06T05:12:31;9.32;;;3.47;;
78372;SDS011;67656;52.074;4.758;2023-08-06T05:17:31;8.15;;;3.53;;
78372;SDS011;67656;52.074;4.758;2023-08-06T05:22:32;8.27;;;3.70;;
78372;SDS011;67656;52.074;4.758;2023-08-06T05:27:32;7.53;;;3.60;;
78372;SDS011;67656;52.074;4.758;2023-08-06T05:32:32;9.00;;;3.28;;
78372;SDS011;67656;52.074;4.758;2023-08-06T05:37:33;5.80;;;3.45;;
78372;SDS011;67656;52.074;4.758;2023-08-06T05:42:33;6.38;;;3.28;;
78372;SDS011;67656;52.074;4.758;2023-08-06T05:47:33;7.18;;;3.60;;
78372;SDS011;67656;52.074;4.758;2023-08-06T05:52:34;8.98;;;3.92;;
78372;SDS011;67656;52.074;4.758;2023-08-06T05:57:34;8.85;;;4.18;;
78372;SDS011;67656;52.074;4.758;2023-08-06T06:02:35;7.88;;;3.80;;
78372;SDS011;67656;52.074;4.758;2023-08-06T06:07:35;7.68;;;3.42;;
78372;SDS011;67656;52.074;4.758;2023-08-06T06:12:35;7.88;;;3.17;;
78372;SDS011;67656;52.074;4.758;2023-08-06T06:17:38;6.70;;;3.10;;
78372;SDS011;67656;52.074;4.758;2023-08-06T06:22:38;6.05;;;3.05;;
78372;SDS011;67656;52.074;4.758;2023-08-06T06:27:38;6.75;;;3.22;;
78372;SDS011;67656;52.074;4.758;2023-08-06T06:32:39;8.10;;;3.20;;
78372;SDS011;67656;52.074;4.758;2023-08-06T06:37:39;5.70;;;3.00;;
78372;SDS011;67656;52.074;4.758;2023-08-06T06:42:39;8.02;;;3.13;;
78372;SDS011;67656;52.074;4.758;2023-08-06T06:47:42;5.72;;;2.80;;
78372;SDS011;67656;52.074;4.758;2023-08-06T06:52:42;8.65;;;3.00;;
78372;SDS011;67656;52.074;4.758;2023-08-06T06:57:42;8.32;;;2.50;;
78372;SDS011;67656;52.074;4.758;2023-08-06T07:02:43;6.75;;;2.65;;
78372;SDS011;67656;52.074;4.758;2023-08-06T07:07:43;6.88;;;2.35;;
78372;SDS011;67656;52.074;4.758;2023-08-06T07:12:43;5.53;;;2.40;;
78372;SDS011;67656;52.074;4.758;2023-08-06T07:17:43;6.57;;;2.13;;
78372;SDS011;67656;52.074;4.758;2023-08-06T07:22:44;5.57;;;2.05;;
78372;SDS011;67656;52.074;4.758;2023-08-06T07:27:45;4.63;;;1.73;;
78372;SDS011;67656;52.074;4.758;2023-08-06T07:32:45;4.07;;;1.50;;
78372;SDS011;67656;52.074;4.758;2023-08-06T07:37:47;5.40;;;1.30;;
78372;SDS011;67656;52.074;4.758;2023-08-06T07:42:47;3.65;;;1.42;;
78372;SDS011;67656;52.074;4.758;2023-08-06T07:47:47;4.10;;;1.27;;
78372;SDS011;67656;52.074;4.758;2023-08-06T07:52:47;4.20;;;1.00;;
78372;SDS011;67656;52.074;4.758;2023-08-06T07:57:48;4.80;;;1.00;;
78372;SDS011;67656;52.074;4.758;2023-08-06T08:02:48;3.47;;;1.08;;
78372;SDS011;67656;52.074;4.758;2023-08-06T08:07:50;4.97;;;1.10;;
78372;SDS011;67656;52.074;4.758;2023-08-06T08:12:51;4.55;;;1.17;;
78372;SDS011;67656;52.074;4.758;2023-08-06T08:17:52;4.70;;;1.13;;
78372;SDS011;67656;52.074;4.758;2023-08-06T08:22:52;4.57;;;1.35;;
78372;SDS011;67656;52.074;4.758;2023-08-06T08:27:56;4.25;;;1.20;;
78372;SDS011;67656;52.074;4.758;2023-08-06T08:32:56;2.17;;;0.80;;
78372;SDS011;67656;52.074;4.758;2023-08-06T08:37:56;3.67;;;0.90;;
78372;SDS011;67656;52.074;4.758;2023-08-06T08:42:57;3.92;;;1.15;;
78372;SDS011;67656;52.074;4.758;2023-08-06T08:48:02;2.45;;;1.20;;
78372;SDS011;67656;52.074;4.758;2023-08-06T08:53:02;3.22;;;0.90;;
78372;SDS011;67656;52.074;4.758;2023-08-06T08:58:03;3.72;;;1.10;;
78372;SDS011;67656;52.074;4.758;2023-08-06T09:03:05;4.20;;;1.15;;
78372;SDS011;67656;52.074;4.758;2023-08-06T09:08:06;2.83;;;1.00;;
78372;SDS011;67656;52.074;4.758;2023-08-06T09:13:11;2.85;;;1.10;;
78372;SDS011;67656;52.074;4.758;2023-08-06T09:18:11;5.80;;;1.10;;
78372;SDS011;67656;52.074;4.758;2023-08-06T09:23:12;2.40;;;1.15;;
78372;SDS011;67656;52.074;4.758;2023-08-06T09:28:12;3.80;;;1.30;;
78372;SDS011;67656;52.074;4.758;2023-08-06T09:33:14;2.97;;;1.00;;
78372;SDS011;67656;52.074;4.758;2023-08-06T09:38:18;3.67;;;1.10;;
78372;SDS011;67656;52.074;4.758;2023-08-06T09:43:18;4.82;;;1.00;;
78372;SDS011;67656;52.074;4.758;2023-08-06T09:48:19;3.40;;;1.02;;
78372;SDS011;67656;52.074;4.758;2023-08-06T09:53:24;3.05;;;0.90;;
78372;SDS011;67656;52.074;4.758;2023-08-06T09:58:25;2.75;;;1.05;;
78372;SDS011;67656;52.074;4.758;2023-08-06T10:03:25;3.47;;;1.10;;
78372;SDS011;67656;52.074;4.758;2023-08-06T10:08:28;1.63;;;0.80;;
78372;SDS011;67656;52.074;4.758;2023-08-06T10:13:28;2.00;;;0.85;;
78372;SDS011;67656;52.074;4.758;2023-08-06T10:18:29;6.00;;;1.00;;
78372;SDS011;67656;52.074;4.758;2023-08-06T10:23:33;2.78;;;1.08;;
78372;SDS011;67656;52.074;4.758;2023-08-06T10:28:36;3.40;;;0.80;;
78372;SDS011;67656;52.074;4.758;2023-08-06T10:33:44;1.38;;;0.60;;
78372;SDS011;67656;52.074;4.758;2023-08-06T10:38:47;2.15;;;0.70;;
78372;SDS011;67656;52.074;4.758;2023-08-06T10:43:49;1.90;;;0.70;;
78372;SDS011;67656;52.074;4.758;2023-08-06T10:48:50;2.20;;;0.70;;
78372;SDS011;67656;52.074;4.758;2023-08-06T10:53:50;3.35;;;1.00;;
78372;SDS011;67656;52.074;4.758;2023-08-06T10:58:53;1.83;;;0.80;;
78372;SDS011;67656;52.074;4.758;2023-08-06T11:03:54;2.70;;;0.70;;
78372;SDS011;67656;52.074;4.758;2023-08-06T11:08:54;2.63;;;0.80;;
78372;SDS011;67656;52.074;4.758;2023-08-06T11:13:55;2.80;;;1.00;;
78372;SDS011;67656;52.074;4.758;2023-08-06T11:18:55;1.50;;;0.80;;
78372;SDS011;67656;52.074;4.758;2023-08-06T11:23:55;0.82;;;0.50;;
78372;SDS011;67656;52.074;4.758;2023-08-06T11:28:57;1.58;;;0.60;;
78372;SDS011;67656;52.074;4.758;2023-08-06T11:33:57;2.20;;;0.60;;
78372;SDS011;67656;52.074;4.758;2023-08-06T11:39:01;1.40;;;0.57;;
78372;SDS011;67656;52.074;4.758;2023-08-06T11:44:02;1.35;;;0.45;;
78372;SDS011;67656;52.074;4.758;2023-08-06T11:49:02;1.90;;;0.50;;
78372;SDS011;67656;52.074;4.758;2023-08-06T11:54:03;2.85;;;0.60;;
78372;SDS011;67656;52.074;4.758;2023-08-06T11:59:03;3.13;;;0.70;;
78372;SDS011;67656;52.074;4.758;2023-08-06T12:04:04;2.28;;;0.50;;
78372;SDS011;67656;52.074;4.758;2023-08-06T12:09:04;1.95;;;0.40;;
78372;SDS011;67656;52.074;4.758;2023-08-06T12:14:05;2.28;;;0.50;;
78372;SDS011;67656;52.074;4.758;2023-08-06T12:19:05;0.90;;;0.30;;
78372;SDS011;67656;52.074;4.758;2023-08-06T12:24:06;1.38;;;0.40;;
78372;SDS011;67656;52.074;4.758;2023-08-06T12:29:06;1.70;;;0.55;;
78372;SDS011;67656;52.074;4.758;2023-08-06T12:34:06;1.38;;;0.40;;
78372;SDS011;67656;52.074;4.758;2023-08-06T12:39:07;1.48;;;0.40;;
78372;SDS011;67656;52.074;4.758;2023-08-06T12:44:07;0.70;;;0.40;;
78372;SDS011;67656;52.074;4.758;2023-08-06T12:49:07;1.58;;;0.50;;
78372;SDS011;67656;52.074;4.758;2023-08-06T12:54:08;1.67;;;0.60;;
78372;SDS011;67656;52.074;4.758;2023-08-06T12:59:08;1.38;;;0.57;;
78372;SDS011;67656;52.074;4.758;2023-08-06T13:04:09;1.15;;;0.50;;
78372;SDS011;67656;52.074;4.758;2023-08-06T13:09:09;1.00;;;0.50;;
78372;SDS011;67656;52.074;4.758;2023-08-06T13:14:10;1.27;;;0.60;;
78372;SDS011;67656;52.074;4.758;2023-08-06T13:19:11;1.45;;;0.60;;
78372;SDS011;67656;52.074;4.758;2023-08-06T13:24:12;1.10;;;0.52;;
78372;SDS011;67656;52.074;4.758;2023-08-06T13:29:12;0.50;;;0.30;;
78372;SDS011;67656;52.074;4.758;2023-08-06T13:34:13;0.60;;;0.40;;
78372;SDS011;67656;52.074;4.758;2023-08-06T13:39:13;1.40;;;0.60;;
78372;SDS011;67656;52.074;4.758;2023-08-06T13:44:14;2.30;;;0.70;;
78372;SDS011;67656;52.074;4.758;2023-08-06T13:49:17;2.78;;;0.70;;
78372;SDS011;67656;52.074;4.758;2023-08-06T13:54:17;1.65;;;0.80;;
78372;SDS011;67656;52.074;4.758;2023-08-06T13:59:18;1.83;;;0.68;;
78372;SDS011;67656;52.074;4.758;2023-08-06T14:04:18;2.88;;;0.70;;
78372;SDS011;67656;52.074;4.758;2023-08-06T14:09:18;3.70;;;0.50;;
78372;SDS011;67656;52.074;4.758;2023-08-06T14:14:19;5.00;;;0.60;;
78372;SDS011;67656;52.074;4.758;2023-08-06T14:19:19;4.82;;;0.50;;
78372;SDS011;67656;52.074;4.758;2023-08-06T14:24:20;4.18;;;0.73;;
78372;SDS011;67656;52.074;4.758;2023-08-06T14:29:20;3.80;;;0.50;;
78372;SDS011;67656;52.074;4.758;2023-08-06T14:34:21;3.40;;;0.63;;
78372;SDS011;67656;52.074;4.758;2023-08-06T14:39:21;2.33;;;0.40;;
78372;SDS011;67656;52.074;4.758;2023-08-06T14:44:22;4.70;;;0.88;;
78372;SDS011;67656;52.074;4.758;2023-08-06T14:49:23;2.55;;;0.60;;
78372;SDS011;67656;52.074;4.758;2023-08-06T14:54:23;6.90;;;0.70;;
78372;SDS011;67656;52.074;4.758;2023-08-06T14:59:24;7.47;;;1.05;;
78372;SDS011;67656;52.074;4.758;2023-08-06T15:04:24;3.67;;;0.70;;
78372;SDS011;67656;52.074;4.758;2023-08-06T15:09:25;3.08;;;0.70;;
78372;SDS011;67656;52.074;4.758;2023-08-06T15:14:25;6.07;;;0.82;;
78372;SDS011;67656;52.074;4.758;2023-08-06T15:19:25;5.82;;;0.50;;
78372;SDS011;67656;52.074;4.758;2023-08-06T15:24:26;1.42;;;0.55;;
78372;SDS011;67656;52.074;4.758;2023-08-06T15:29:26;4.68;;;0.70;;
78372;SDS011;67656;52.074;4.758;2023-08-06T15:34:27;4.05;;;0.70;;
78372;SDS011;67656;52.074;4.758;2023-08-06T15:39:27;5.50;;;1.00;;
78372;SDS011;67656;52.074;4.758;2023-08-06T15:44:28;4.18;;;0.75;;
78372;SDS011;67656;52.074;4.758;2023-08-06T15:49:28;6.28;;;1.17;;
78372;SDS011;67656;52.074;4.758;2023-08-06T15:54:29;5.75;;;0.70;;
78372;SDS011;67656;52.074;4.758;2023-08-06T15:59:30;4.93;;;0.80;;
78372;SDS011;67656;52.074;4.758;2023-08-06T16:04:31;5.57;;;0.95;;
78372;SDS011;67656;52.074;4.758;2023-08-06T16:09:32;8.50;;;0.93;;
78372;SDS011;67656;52.074;4.758;2023-08-06T16:14:32;4.90;;;0.90;;
78372;SDS011;67656;52.074;4.758;2023-08-06T16:19:33;3.63;;;0.60;;
78372;SDS011;67656;52.074;4.758;2023-08-06T16:24:34;3.67;;;0.63;;
78372;SDS011;67656;52.074;4.758;2023-08-06T16:29:36;3.90;;;0.60;;
78372;SDS011;67656;52.074;4.758;2023-08-06T16:34:37;6.05;;;0.60;;
78372;SDS011;67656;52.074;4.758;2023-08-06T16:39:38;3.53;;;0.45;;
78372;SDS011;67656;52.074;4.758;2023-08-06T16:44:38;4.65;;;0.80;;
78372;SDS011;67656;52.074;4.758;2023-08-06T16:49:38;4.60;;;0.80;;
78372;SDS011;67656;52.074;4.758;2023-08-06T16:54:39;4.25;;;0.65;;
78372;SDS011;67656;52.074;4.758;2023-08-06T16:59:39;6.03;;;0.90;;
78372;SDS011;67656;52.074;4.758;2023-08-06T17:04:40;5.70;;;0.88;;
78372;SDS011;67656;52.074;4.758;2023-08-06T17:09:40;9.10;;;1.27;;
78372;SDS011;67656;52.074;4.758;2023-08-06T17:14:40;7.72;;;1.00;;
78372;SDS011;67656;52.074;4.758;2023-08-06T17:19:44;7.82;;;0.90;;
78372;SDS011;67656;52.074;4.758;2023-08-06T17:24:44;7.65;;;0.95;;
78372;SDS011;67656;52.074;4.758;2023-08-06T17:29:45;5.10;;;1.00;;
78372;SDS011;67656;52.074;4.758;2023-08-06T17:34:45;5.07;;;0.82;;
78372;SDS011;67656;52.074;4.758;2023-08-06T17:39:46;4.18;;;0.82;;
78372;SDS011;67656;52.074;4.758;2023-08-06T17:44:46;4.47;;;1.10;;
78372;SDS011;67656;52.074;4.758;2023-08-06T17:49:46;7.60;;;1.10;;
78372;SDS011;67656;52.074;4.758;2023-08-06T17:54:47;4.15;;;0.88;;
78372;SDS011;67656;52.074;4.758;2023-08-06T17:59:47;2.22;;;0.55;;
78372;SDS011;67656;52.074;4.758;2023-08-06T18:04:48;5.05;;;1.15;;
78372;SDS011;67656;52.074;4.758;2023-08-06T18:09:48;6.53;;;0.85;;
78372;SDS011;67656;52.074;4.758;2023-08-06T18:14:48;3.28;;;0.40;;
78372;SDS011;67656;52.074;4.758;2023-08-06T18:19:49;3.47;;;0.68;;
78372;SDS011;67656;52.074;4.758;2023-08-06T18:24:49;5.93;;;0.85;;
78372;SDS011;67656;52.074;4.758;2023-08-06T18:29:50;5.57;;;0.40;;
78372;SDS011;67656;52.074;4.758;2023-08-06T18:34:52;5.30;;;1.00;;
78372;SDS011;67656;52.074;4.758;2023-08-06T18:39:53;4.35;;;0.80;;
78372;SDS011;67656;52.074;4.758;2023-08-06T18:44:53;6.03;;;1.00;;
78372;SDS011;67656;52.074;4.758;2023-08-06T18:49:54;7.82;;;1.13;;
78372;SDS011;67656;52.074;4.758;2023-08-06T18:54:54;6.25;;;1.48;;
78372;SDS011;67656;52.074;4.758;2023-08-06T18:59:55;12.55;;;1.35;;
78372;SDS011;67656;52.074;4.758;2023-08-06T19:04:56;7.93;;;1.38;;
78372;SDS011;67656;52.074;4.758;2023-08-06T19:09:56;10.43;;;1.60;;
78372;SDS011;67656;52.074;4.758;2023-08-06T19:14:57;8.32;;;1.40;;
78372;SDS011;67656;52.074;4.758;2023-08-06T19:19:57;8.43;;;1.38;;
78372;SDS011;67656;52.074;4.758;2023-08-06T19:24:57;9.93;;;1.55;;
78372;SDS011;67656;52.074;4.758;2023-08-06T19:29:58;8.75;;;1.42;;
78372;SDS011;67656;52.074;4.758;2023-08-06T19:34:58;7.72;;;1.50;;
78372;SDS011;67656;52.074;4.758;2023-08-06T19:39:59;7.43;;;1.20;;
78372;SDS011;67656;52.074;4.758;2023-08-06T19:44:59;10.52;;;1.42;;
78372;SDS011;67656;52.074;4.758;2023-08-06T19:50:00;6.22;;;1.30;;
78372;SDS011;67656;52.074;4.758;2023-08-06T19:55:00;7.70;;;1.30;;
78372;SDS011;67656;52.074;4.758;2023-08-06T20:00:00;5.68;;;1.10;;
78372;SDS011;67656;52.074;4.758;2023-08-06T20:05:01;5.10;;;1.13;;
78372;SDS011;67656;52.074;4.758;2023-08-06T20:10:02;6.75;;;1.35;;
78372;SDS011;67656;52.074;4.758;2023-08-06T20:15:02;6.22;;;1.13;;
78372;SDS011;67656;52.074;4.758;2023-08-06T20:20:03;6.60;;;1.35;;
78372;SDS011;67656;52.074;4.758;2023-08-06T20:25:04;6.53;;;0.95;;
78372;SDS011;67656;52.074;4.758;2023-08-06T20:30:04;10.57;;;1.15;;
78372;SDS011;67656;52.074;4.758;2023-08-06T20:35:05;6.78;;;1.35;;
78372;SDS011;67656;52.074;4.758;2023-08-06T20:40:06;8.45;;;1.35;;
78372;SDS011;67656;52.074;4.758;2023-08-06T20:45:08;9.07;;;1.48;;
78372;SDS011;67656;52.074;4.758;2023-08-06T20:50:09;10.82;;;1.33;;
78372;SDS011;67656;52.074;4.758;2023-08-06T20:55:09;4.55;;;0.98;;
78372;SDS011;67656;52.074;4.758;2023-08-06T21:00:11;10.27;;;1.33;;
78372;SDS011;67656;52.074;4.758;2023-08-06T21:05:12;9.82;;;1.48;;
78372;SDS011;67656;52.074;4.758;2023-08-06T21:10:13;7.63;;;1.48;;
78372;SDS011;67656;52.074;4.758;2023-08-06T21:15:13;6.90;;;1.33;;
78372;SDS011;67656;52.074;4.758;2023-08-06T21:20:14;9.48;;;1.35;;
78372;SDS011;67656;52.074;4.758;2023-08-06T21:25:14;5.55;;;1.20;;
78372;SDS011;67656;52.074;4.758;2023-08-06T21:30:14;8.55;;;0.82;;
78372;SDS011;67656;52.074;4.758;2023-08-06T21:35:15;5.80;;;0.80;;
78372;SDS011;67656;52.074;4.758;2023-08-06T21:40:15;4.97;;;0.77;;
78372;SDS011;67656;52.074;4.758;2023-08-06T21:45:16;7.30;;;0.95;;
78372;SDS011;67656;52.074;4.758;2023-08-06T21:50:16;5.30;;;1.33;;
78372;SDS011;67656;52.074;4.758;2023-08-06T21:55:17;8.95;;;1.35;;
78372;SDS011;67656;52.074;4.758;2023-08-06T22:00:17;7.03;;;1.23;;
78372;SDS011;67656;52.074;4.758;2023-08-06T22:05:18;5.68;;;1.20;;
78372;SDS011;67656;52.074;4.758;2023-08-06T22:10:18;9.40;;;1.30;;
78372;SDS011;67656;52.074;4.758;2023-08-06T22:15:18;9.90;;;1.40;;
78372;SDS011;67656;52.074;4.758;2023-08-06T22:20:19;11.43;;;1.73;;
78372;SDS011;67656;52.074;4.758;2023-08-06T22:25:19;6.25;;;1.13;;
78372;SDS011;67656;52.074;4.758;2023-08-06T22:30:20;7.57;;;1.10;;
78372;SDS011;67656;52.074;4.758;2023-08-06T22:35:20;4.55;;;1.10;;
78372;SDS011;67656;52.074;4.758;2023-08-06T22:40:21;5.38;;;0.93;;
78372;SDS011;67656;52.074;4.758;2023-08-06T22:45:21;3.53;;;0.80;;
78372;SDS011;67656;52.074;4.758;2023-08-06T22:50:21;5.32;;;1.10;;
78372;SDS011;67656;52.074;4.758;2023-08-06T22:55:22;6.97;;;1.52;;
78372;SDS011;67656;52.074;4.758;2023-08-06T23:00:22;7.40;;;1.00;;
78372;SDS011;67656;52.074;4.758;2023-08-06T23:05:23;4.72;;;1.00;;
78372;SDS011;67656;52.074;4.758;2023-08-06T23:10:23;6.57;;;1.00;;
78372;SDS011;67656;52.074;4.758;2023-08-06T23:15:23;5.65;;;0.93;;
78372;SDS011;67656;52.074;4.758;2023-08-06T23:20:24;7.68;;;1.27;;
78372;SDS011;67656;52.074;4.758;2023-08-06T23:25:24;4.70;;;0.80;;
78372;SDS011;67656;52.074;4.758;2023-08-06T23:30:25;6.97;;;1.10;;
78372;SDS011;67656;52.074;4.758;2023-08-06T23:35:25;8.43;;;0.98;;
78372;SDS011;67656;52.074;4.758;2023-08-06T23:40:25;7.75;;;1.00;;
78372;SDS011;67656;52.074;4.758;2023-08-06T23:45:26;4.57;;;1.00;;
78372;SDS011;67656;52.074;4.758;2023-08-06T23:50:26;5.53;;;0.95;;
78372;SDS011;67656;52.074;4.758;2023-08-06T23:55:28;5.72;;;0.90;;
